Time;durP1;ratioP1;P1;durP2;ratioP2;P2;SDS_P1;SDS_P2;PMS_P1;PMS_P2;Temp;Humidity;BMP_temperature;BMP_pressure;BME280_temperature;BME280_humidity;BME280_pressure;Samples;Min_cycle;Max_cycle;Signal;HPM_P1;HPM_P2
2022/10/31 00:02:14;;;;;;;0.40;0.40;;;;;;;13.32;96.39;100682.88;5065283;28;20025;-65
2022/10/31 00:04:40;;;;;;;0.70;0.70;;;;;;;13.33;96.37;100694.19;5064683;28;20021;-66
2022/10/31 00:07:05;;;;;;;1.27;0.80;;;;;;;13.30;96.61;100689.03;5065092;28;20029;-66
2022/10/31 00:09:30;;;;;;;0.40;0.40;;;;;;;13.28;96.61;100699.47;5065185;28;20033;-67
2022/10/31 00:11:56;;;;;;;15.82;2.40;;;;;;;13.34;96.77;100696.78;5065413;28;20017;-66
2022/10/31 00:14:21;;;;;;;1.20;1.13;;;;;;;13.31;96.37;100696.81;5065340;28;20029;-67
2022/10/31 00:16:46;;;;;;;1.60;1.58;;;;;;;13.32;96.39;100695.09;5065259;28;20028;-68
2022/10/31 00:19:11;;;;;;;1.77;1.67;;;;;;;13.30;96.12;100694.22;5065204;28;20512;-66
2022/10/31 00:21:37;;;;;;;1.10;1.10;;;;;;;13.20;97.00;100673.53;5065044;28;20044;-67
2022/10/31 00:24:02;;;;;;;0.40;0.40;;;;;;;13.29;96.23;100682.94;5065140;28;20052;-67
2022/10/31 00:26:29;;;;;;;0.30;0.30;;;;;;;13.30;96.35;100684.69;5065032;28;20024;-67
2022/10/31 00:28:54;;;;;;;2.47;2.35;;;;;;;13.27;96.04;100675.13;5065168;28;20099;-65
2022/10/31 00:31:19;;;;;;;0.40;0.40;;;;;;;13.25;96.38;100679.53;5065141;28;20112;-67
2022/10/31 00:33:45;;;;;;;0.68;0.68;;;;;;;13.24;96.15;100680.41;5065285;28;20044;-68
2022/10/31 00:36:13;;;;;;;1.52;1.45;;;;;;;13.21;96.16;100679.59;5064804;28;20060;-67
2022/10/31 00:38:39;;;;;;;1.48;1.05;;;;;;;13.24;95.97;100675.19;5064203;28;20050;-67
2022/10/31 00:41:04;;;;;;;0.40;0.40;;;;;;;13.19;96.32;100676.16;5063588;28;20052;-67
2022/10/31 00:43:29;;;;;;;2.35;2.25;;;;;;;13.17;96.28;100683.13;5064091;28;20091;-67
2022/10/31 00:45:55;;;;;;;3.00;2.78;;;;;;;13.11;96.23;100687.56;5065077;28;20028;-67
2022/10/31 00:48:20;;;;;;;2.83;1.90;;;;;;;13.07;96.23;100683.25;5064917;28;20025;-67
2022/10/31 00:50:45;;;;;;;1.85;1.58;;;;;;;13.04;96.30;100685.91;5064601;28;20017;-64
2022/10/31 00:53:11;;;;;;;0.50;0.50;;;;;;;13.02;96.45;100691.16;5064789;28;20035;-67
2022/10/31 00:55:36;;;;;;;0.30;0.30;;;;;;;13.02;96.63;100691.16;5064664;28;20040;-66
2022/10/31 00:58:01;;;;;;;1.42;1.35;;;;;;;13.06;96.31;100689.38;5064695;28;20025;-67
2022/10/31 01:00:27;;;;;;;7.50;4.20;;;;;;;12.95;96.50;100665.19;5064552;28;20056;-67
2022/10/31 01:02:52;;;;;;;0.40;0.40;;;;;;;13.07;96.55;100674.56;5064760;28;20024;-66
2022/10/31 01:05:18;;;;;;;1.38;1.15;;;;;;;13.03;96.73;100660.75;5064855;28;20144;-66
2022/10/31 01:07:43;;;;;;;1.88;1.75;;;;;;;13.07;96.86;100667.63;5064494;28;20028;-67
2022/10/31 01:10:10;;;;;;;1.77;1.67;;;;;;;13.09;96.76;100663.25;5064504;28;20021;-67
2022/10/31 01:12:39;;;;;;;0.82;0.82;;;;;;;13.07;97.22;100677.19;5064697;28;20033;-67
2022/10/31 01:15:05;;;;;;;0.40;0.40;;;;;;;13.09;97.18;100671.09;5066085;28;20035;-66
2022/10/31 01:17:31;;;;;;;2.65;2.45;;;;;;;13.10;96.82;100659.75;5068525;28;20052;-67
2022/10/31 01:19:56;;;;;;;1.60;1.50;;;;;;;13.11;96.86;100658.91;5068461;28;20032;-67
2022/10/31 01:22:21;;;;;;;0.40;0.40;;;;;;;13.13;96.73;100667.53;5068297;28;20029;-66
2022/10/31 01:24:47;;;;;;;0.70;0.70;;;;;;;13.10;97.11;100662.38;5068093;28;20119;-70
2022/10/31 01:27:12;;;;;;;0.88;0.80;;;;;;;13.08;97.03;100684.97;5068190;28;20089;-66
2022/10/31 01:29:37;;;;;;;0.90;0.90;;;;;;;13.08;97.02;100664.13;5068093;28;20107;-67
2022/10/31 01:32:03;;;;;;;0.40;0.40;;;;;;;13.10;96.97;100669.34;5068121;28;20056;-66
2022/10/31 01:34:28;;;;;;;0.65;0.55;;;;;;;13.12;96.73;100662.34;5068220;28;20027;-66
2022/10/31 01:36:53;;;;;;;0.40;0.40;;;;;;;13.14;96.76;100658.84;5067955;28;20513;-67
2022/10/31 01:39:19;;;;;;;0.40;0.40;;;;;;;13.15;96.44;100649.25;5067896;28;20031;-66
2022/10/31 01:41:48;;;;;;;1.35;1.33;;;;;;;13.12;96.56;100650.19;5068013;28;20059;-66
2022/10/31 01:44:13;;;;;;;2.75;2.65;;;;;;;13.17;96.82;100649.25;5067969;28;20079;-66
2022/10/31 01:46:56;;;;;;;0.40;0.40;;;;;;;13.12;96.97;100659.75;5067709;28;20029;-65
2022/10/31 01:49:24;;;;;;;3.40;2.15;;;;;;;13.11;96.87;100661.50;5067796;28;20104;-65
2022/10/31 01:52:16;;;;;;;0.70;0.70;;;;;;;13.08;96.91;100656.31;5067522;28;20024;-66
2022/10/31 01:54:48;;;;;;;0.60;0.60;;;;;;;13.14;97.11;100669.28;5067739;28;20103;-65
2022/10/31 01:57:15;;;;;;;1.00;1.00;;;;;;;13.18;96.58;100656.19;5067670;28;20107;-66
2022/10/31 01:59:47;;;;;;;2.00;1.90;;;;;;;13.15;96.81;100664.91;5067367;28;20111;-66
2022/10/31 02:02:12;;;;;;;;;;;;;;;13.20;96.87;100664.81;5067540;28;20347;-66
2022/10/31 02:04:39;;;;;;;0.40;0.40;;;;;;;13.17;96.68;100657.94;5067342;28;19913;-66
2022/10/31 02:07:13;;;;;;;0.40;0.40;;;;;;;13.13;96.93;100667.53;5067372;28;20048;-65
2022/10/31 02:09:40;;;;;;;1.20;0.93;;;;;;;13.19;96.70;100678.75;5067538;28;20032;-65
2022/10/31 02:12:06;;;;;;;0.93;0.88;;;;;;;13.17;96.55;100680.53;5067225;28;20019;-65
2022/10/31 02:14:31;;;;;;;0.50;0.50;;;;;;;13.16;97.07;100679.69;5067406;28;20028;-65
2022/10/31 02:16:57;;;;;;;9.23;3.40;;;;;;;13.16;96.74;100676.19;5067333;28;20017;-65
2022/10/31 02:19:41;;;;;;;4.00;3.42;;;;;;;13.14;97.23;100692.72;5067320;28;20032;-66
2022/10/31 02:22:09;;;;;;;0.68;0.68;;;;;;;13.16;97.14;100707.47;5067134;28;20473;-65
2022/10/31 02:24:47;;;;;;;3.33;1.90;;;;;;;13.16;97.15;100708.34;5066842;28;20095;-65
2022/10/31 02:27:44;;;;;;;1.38;1.38;;;;;;;13.16;97.24;100704.88;5066798;28;20080;-67
2022/10/31 02:30:12;;;;;;;1.05;1.05;;;;;;;13.14;97.38;100692.72;5066951;28;20021;-67
2022/10/31 02:33:05;;;;;;;3.80;3.50;;;;;;;13.12;97.32;100691.88;5067090;28;20082;-65
2022/10/31 02:35:50;;;;;;;0.47;0.47;;;;;;;13.19;97.49;100697.88;5066932;28;20040;-65
2022/10/31 02:38:37;;;;;;;0.50;0.50;;;;;;;13.19;97.53;100700.50;5066617;28;20059;-65
2022/10/31 02:41:08;;;;;;;0.65;0.65;;;;;;;13.18;97.18;100710.94;5066760;28;20155;-66
2022/10/31 02:43:52;;;;;;;1.30;1.27;;;;;;;13.20;97.35;100719.56;5066932;28;20119;-67
2022/10/31 02:46:26;;;;;;;1.67;1.58;;;;;;;13.19;97.15;100717.88;5066653;28;20021;-67
2022/10/31 02:48:55;;;;;;;0.80;0.80;;;;;;;13.21;97.14;100716.09;5066749;28;20025;-67
2022/10/31 02:51:20;;;;;;;0.70;0.70;;;;;;;13.15;97.14;100706.63;5066647;28;20106;-65
2022/10/31 02:53:46;;;;;;;1.60;1.55;;;;;;;13.14;97.00;100713.59;5066556;28;20025;-66
2022/10/31 02:56:15;;;;;;;0.30;0.30;;;;;;;13.17;97.31;100715.28;5066325;28;20365;-66
2022/10/31 02:58:54;;;;;;;0.50;0.50;;;;;;;13.18;97.10;100727.41;5066455;28;20025;-65
2022/10/31 03:01:33;;;;;;;3.17;2.90;;;;;;;13.17;97.42;100720.50;5066045;28;20037;-65
2022/10/31 03:04:19;;;;;;;0.85;0.85;;;;;;;13.21;97.21;100690.88;5066328;28;20025;-67
2022/10/31 03:07:08;;;;;;;0.60;0.60;;;;;;;13.20;96.92;100702.19;5066401;28;20025;-66
2022/10/31 03:09:55;;;;;;;2.33;2.20;;;;;;;13.21;96.69;100696.09;5065825;28;20029;-65
2022/10/31 03:12:49;;;;;;;0.38;0.38;;;;;;;13.17;96.91;100690.94;5065172;28;20060;-66
2022/10/31 03:15:21;;;;;;;0.65;0.65;;;;;;;13.14;96.80;100703.16;5063730;28;20048;-66
2022/10/31 03:17:55;;;;;;;0.50;0.50;;;;;;;13.13;96.86;100711.00;5065092;28;20021;-65
2022/10/31 03:20:26;;;;;;;0.63;0.63;;;;;;;13.05;96.70;100715.47;5066219;28;20438;-65
2022/10/31 03:22:53;;;;;;;0.55;0.55;;;;;;;13.02;97.11;100705.91;5066098;28;20036;-66
2022/10/31 03:25:18;;;;;;;1.30;1.27;;;;;;;12.98;96.87;100714.66;5065876;28;20477;-66
2022/10/31 03:27:45;;;;;;;0.93;0.93;;;;;;;12.95;97.08;100725.13;5065392;28;20080;-67
2022/10/31 03:30:11;;;;;;;1.25;0.75;;;;;;;12.93;97.38;100727.75;5064612;28;20021;-67
2022/10/31 03:32:46;;;;;;;0.77;0.77;;;;;;;12.91;97.37;100737.34;5065664;28;20107;-65
2022/10/31 03:35:15;;;;;;;3.20;3.00;;;;;;;12.88;97.33;100746.06;5065969;28;20042;-67
2022/10/31 03:37:42;;;;;;;3.35;3.13;;;;;;;12.92;97.45;100733.00;5065174;28;20021;-67
2022/10/31 03:40:10;;;;;;;0.40;0.40;;;;;;;12.92;97.65;100735.59;5063994;28;20038;-67
2022/10/31 03:42:41;;;;;;;4.82;4.53;;;;;;;12.89;97.70;100750.38;5065805;28;20079;-67
2022/10/31 03:45:08;;;;;;;2.42;2.25;;;;;;;12.88;97.63;100751.28;5065908;28;20045;-68
2022/10/31 03:47:37;;;;;;;3.70;3.22;;;;;;;12.88;97.26;100748.66;5065472;28;20076;-70
2022/10/31 03:50:04;;;;;;;0.40;0.40;;;;;;;12.83;97.81;100747.84;5065487;28;20041;-72
2022/10/31 03:53:06;;;;;;;0.60;0.60;;;;;;;12.81;98.32;100738.34;5065250;28;20021;-70
2022/10/31 03:55:39;;;;;;;3.70;1.83;;;;;;;12.82;97.85;100733.13;5065672;28;20021;-72
2022/10/31 03:58:12;;;;;;;0.40;0.40;;;;;;;12.82;97.85;100734.84;5065586;28;20039;-72
2022/10/31 04:00:43;;;;;;;0.52;0.52;;;;;;;12.81;97.91;100739.19;5065213;28;20045;-72
2022/10/31 04:03:34;;;;;;;2.42;2.33;;;;;;;12.80;98.48;100740.09;5065394;28;20029;-69
2022/10/31 04:06:05;;;;;;;1.00;1.00;;;;;;;12.82;98.50;100730.50;5065512;28;20060;-70
2022/10/31 04:08:37;;;;;;;4.43;3.17;;;;;;;12.85;98.34;100725.25;5065487;28;20028;-72
2022/10/31 04:11:04;;;;;;;0.50;0.50;;;;;;;12.83;98.26;100726.16;5065387;28;20437;-70
2022/10/31 04:13:33;;;;;;;1.58;1.48;;;;;;;12.78;98.55;100715.78;5065435;28;20020;-71
2022/10/31 04:15:59;;;;;;;0.63;0.63;;;;;;;12.75;98.65;100713.22;5065531;28;20028;-70
2022/10/31 04:18:25;;;;;;;2.50;2.25;;;;;;;12.82;98.58;100729.63;5065052;28;20081;-71
2022/10/31 04:21:00;;;;;;;1.77;1.67;;;;;;;12.83;98.28;100729.63;5065209;28;20024;-70
2022/10/31 04:23:26;;;;;;;1.58;1.48;;;;;;;12.83;98.44;100731.34;5065488;28;20024;-70
2022/10/31 04:25:51;;;;;;;0.68;0.68;;;;;;;12.84;98.50;100733.09;5065093;28;20088;-71
2022/10/31 04:28:17;;;;;;;1.00;1.00;;;;;;;12.83;98.30;100733.97;5065108;28;20100;-70
2022/10/31 04:30:43;;;;;;;0.80;0.80;;;;;;;12.83;98.54;100733.97;5065117;28;20035;-70
2022/10/31 04:33:08;;;;;;;0.30;0.30;;;;;;;12.87;98.53;100728.72;5065363;28;20105;-70
2022/10/31 04:35:33;;;;;;;0.88;0.88;;;;;;;12.83;98.44;100719.19;5065315;28;20025;-70
2022/10/31 04:37:59;;;;;;;0.73;0.73;;;;;;;12.82;98.41;100721.81;5065043;28;20028;-71
2022/10/31 04:40:24;;;;;;;0.60;0.60;;;;;;;12.84;98.74;100727.88;5064813;28;20477;-70
2022/10/31 04:42:49;;;;;;;0.50;0.50;;;;;;;12.85;98.61;100730.47;5065298;28;20048;-68
2022/10/31 04:45:15;;;;;;;0.30;0.30;;;;;;;12.82;98.60;100722.69;5065193;28;20025;-69
2022/10/31 04:47:40;;;;;;;0.45;0.45;;;;;;;12.82;98.85;100729.63;5064915;28;20025;-69
2022/10/31 04:50:06;;;;;;;0.40;0.40;;;;;;;12.81;98.57;100739.19;5066574;28;20017;-70
2022/10/31 04:52:32;;;;;;;0.32;0.32;;;;;;;12.82;98.77;100746.16;5068680;28;20055;-68
2022/10/31 04:54:57;;;;;;;0.70;0.70;;;;;;;12.82;98.87;100740.06;5068879;28;20021;-69
2022/10/31 04:57:23;;;;;;;1.48;1.38;;;;;;;12.77;99.12;100733.19;5068857;28;20104;-71
2022/10/31 04:59:48;;;;;;;1.65;1.55;;;;;;;12.83;98.92;100747.00;5067301;28;20582;-70
2022/10/31 05:02:13;;;;;;;0.40;0.40;;;;;;;12.83;98.93;100745.25;5068823;28;20036;-70
2022/10/31 05:04:39;;;;;;;2.47;2.38;;;;;;;12.84;99.02;100744.38;5068788;28;20033;-70
2022/10/31 05:07:04;;;;;;;2.28;2.17;;;;;;;12.85;99.07;100751.31;5068613;28;20027;-72
2022/10/31 05:09:29;;;;;;;2.20;2.10;;;;;;;12.86;99.05;100742.59;5068436;28;20021;-70
2022/10/31 05:11:55;;;;;;;3.65;2.70;;;;;;;12.88;99.14;100756.50;5068923;28;20084;-71
2022/10/31 05:14:21;;;;;;;0.40;0.40;;;;;;;12.84;99.19;100741.75;5067077;28;20365;-71
2022/10/31 05:16:46;;;;;;;0.68;0.63;;;;;;;12.87;98.81;100746.97;5068562;28;20029;-71
2022/10/31 05:19:11;;;;;;;0.47;0.47;;;;;;;12.84;99.21;100753.94;5068543;28;20028;-70
2022/10/31 05:21:36;;;;;;;0.65;0.65;;;;;;;12.84;98.99;100757.38;5068478;28;20029;-71
2022/10/31 05:24:02;;;;;;;0.75;0.75;;;;;;;12.86;98.81;100753.03;5068414;28;20053;-68
2022/10/31 05:26:27;;;;;;;1.60;1.50;;;;;;;12.85;99.09;100756.53;5068472;28;20040;-71
2022/10/31 05:28:53;;;;;;;0.40;0.40;;;;;;;12.87;99.21;100756.50;5068472;28;20029;-70
2022/10/31 05:31:18;;;;;;;30.10;7.07;;;;;;;12.85;99.01;100756.53;5068166;28;20017;-72
2022/10/31 05:33:43;;;;;;;1.15;1.15;;;;;;;12.86;98.92;100773.03;5068145;28;20063;-70
2022/10/31 05:36:09;;;;;;;0.45;0.45;;;;;;;12.84;98.95;100764.38;5068109;28;20092;-71
2022/10/31 05:38:35;;;;;;;1.05;1.05;;;;;;;12.82;98.69;100772.19;5068442;28;20039;-71
2022/10/31 05:41:00;;;;;;;0.88;0.88;;;;;;;12.81;99.13;100764.41;5068171;28;20028;-71
2022/10/31 05:43:26;;;;;;;1.00;1.00;;;;;;;12.83;99.00;100762.63;5068158;28;20036;-70
2022/10/31 05:45:53;;;;;;;2.03;1.85;;;;;;;12.80;99.35;100771.34;5068150;28;20032;-71
2022/10/31 05:48:18;;;;;;;2.00;1.88;;;;;;;12.84;99.11;100774.78;5068120;28;20028;-71
2022/10/31 05:50:44;;;;;;;0.40;0.40;;;;;;;12.80;98.97;100762.66;5067966;28;20013;-72
2022/10/31 05:53:09;;;;;;;0.40;0.40;;;;;;;12.83;98.79;100765.22;5067874;28;20101;-70
2022/10/31 05:55:34;;;;;;;1.70;1.60;;;;;;;12.83;98.60;100766.09;5067696;28;20045;-71
2022/10/31 05:58:00;;;;;;;0.32;0.32;;;;;;;12.81;98.57;100764.41;5067967;28;20051;-71
2022/10/31 06:00:26;;;;;;;0.43;0.43;;;;;;;12.81;98.48;100759.19;5066048;28;20106;-71
2022/10/31 06:02:59;;;;;;;1.67;1.58;;;;;;;12.86;98.62;100770.44;5066912;28;20113;-73
2022/10/31 06:05:25;;;;;;;0.30;0.30;;;;;;;12.84;98.52;100769.56;5067807;28;20100;-72
2022/10/31 06:07:50;;;;;;;0.38;0.38;;;;;;;12.87;98.37;100765.19;5067797;28;20480;-72
2022/10/31 06:10:16;;;;;;;0.50;0.50;;;;;;;12.86;98.27;100773.88;5067746;28;20032;-71
2022/10/31 06:12:41;;;;;;;0.60;0.60;;;;;;;12.88;98.44;100772.13;5067657;28;20021;-71
2022/10/31 06:15:08;;;;;;;2.05;1.95;;;;;;;12.87;98.23;100779.97;5067581;28;20487;-71
2022/10/31 06:17:34;;;;;;;0.40;0.40;;;;;;;12.85;98.43;100776.50;5067314;28;20093;-70
2022/10/31 06:20:00;;;;;;;0.45;0.45;;;;;;;12.83;98.78;100781.72;5067398;28;20405;-70
2022/10/31 06:22:25;;;;;;;2.42;2.25;;;;;;;12.85;98.75;100784.31;5067234;28;20080;-69
2022/10/31 06:24:51;;;;;;;0.43;0.43;;;;;;;12.82;99.05;100782.63;5067370;28;20036;-69
2022/10/31 06:27:16;;;;;;;0.50;0.50;;;;;;;12.82;98.90;100777.41;5067260;28;20024;-68
2022/10/31 06:29:41;;;;;;;1.08;1.02;;;;;;;12.87;99.05;100779.97;5066976;28;20021;-68
2022/10/31 06:32:10;;;;;;;1.65;0.73;;;;;;;12.89;99.24;100789.47;5067114;28;20017;-68
2022/10/31 06:34:35;;;;;;;0.40;0.40;;;;;;;12.93;98.73;100790.31;5067143;28;20048;-69
2022/10/31 06:37:00;;;;;;;0.30;0.30;;;;;;;12.95;98.71;100792.91;5067244;28;20048;-68
2022/10/31 06:39:26;;;;;;;1.10;0.93;;;;;;;13.00;99.15;100804.13;5066785;28;20021;-69
2022/10/31 06:41:51;;;;;;;1.10;1.10;;;;;;;12.98;98.83;100798.06;5067054;28;20030;-66
2022/10/31 06:44:16;;;;;;;2.08;1.98;;;;;;;12.94;98.99;100806.81;5066850;28;20036;-68
2022/10/31 06:46:42;;;;;;;0.57;0.57;;;;;;;12.99;98.92;100811.09;5066925;28;20032;-68
2022/10/31 06:49:07;;;;;;;1.35;1.35;;;;;;;12.98;98.89;100811.09;5066746;28;20029;-67
2022/10/31 06:51:32;;;;;;;0.40;0.40;;;;;;;12.94;98.84;100818.06;5066828;28;20448;-68
2022/10/31 06:53:57;;;;;;;30.00;6.18;;;;;;;12.91;98.72;100812.91;5066513;28;20035;-69
2022/10/31 06:56:23;;;;;;;3.45;3.20;;;;;;;12.89;98.82;100815.53;5066463;28;20035;-67
2022/10/31 06:58:48;;;;;;;3.33;1.90;;;;;;;12.86;99.28;100812.97;5066685;28;20021;-67
2022/10/31 07:01:13;;;;;;;0.30;0.30;;;;;;;12.86;98.71;100814.72;5066190;28;20051;-67
2022/10/31 07:03:39;;;;;;;0.30;0.30;;;;;;;12.84;99.18;100814.72;5066592;28;20021;-67
2022/10/31 07:06:04;;;;;;;0.63;0.63;;;;;;;12.84;99.02;100812.09;5066921;28;20031;-68
2022/10/31 07:08:29;;;;;;;0.30;0.30;;;;;;;12.91;98.91;100810.31;5066613;28;20025;-67
2022/10/31 07:10:56;;;;;;;0.30;0.30;;;;;;;12.90;98.58;100816.41;5066432;28;20066;-67
2022/10/31 07:13:25;;;;;;;2.72;1.75;;;;;;;12.91;98.52;100827.69;5066461;28;20025;-66
2022/10/31 07:15:53;;;;;;;0.40;0.40;;;;;;;12.90;98.53;100824.22;5066843;28;20056;-68
2022/10/31 07:18:19;;;;;;;0.35;0.35;;;;;;;12.86;98.76;100831.19;5066447;28;20036;-66
2022/10/31 07:20:44;;;;;;;1.85;0.95;;;;;;;12.86;99.05;100831.19;5066579;28;20025;-67
2022/10/31 07:23:10;;;;;;;0.35;0.35;;;;;;;12.93;98.78;100836.34;5066166;28;20017;-66
2022/10/31 07:25:36;;;;;;;0.40;0.40;;;;;;;12.91;98.98;100830.31;5066186;28;20054;-66
2022/10/31 07:28:02;;;;;;;0.30;0.30;;;;;;;12.92;99.04;100834.63;5065174;28;20036;-68
2022/10/31 07:30:27;;;;;;;1.17;1.17;;;;;;;12.94;99.03;100838.09;5064860;28;20021;-67
2022/10/31 07:32:53;;;;;;;1.95;1.85;;;;;;;12.97;98.80;100838.88;5065821;28;20052;-67
2022/10/31 07:35:24;;;;;;;2.05;1.85;;;;;;;12.96;98.80;100844.13;5065077;28;20040;-67
2022/10/31 07:37:50;;;;;;;0.47;0.47;;;;;;;12.96;99.03;100849.34;5066195;28;20052;-68
2022/10/31 07:40:16;;;;;;;0.40;0.40;;;;;;;12.99;98.79;100852.78;5065972;28;20273;-65
2022/10/31 07:42:44;;;;;;;0.30;0.30;;;;;;;13.01;98.52;100855.38;5066148;28;20088;-67
2022/10/31 07:45:12;;;;;;;1.75;1.65;;;;;;;12.98;98.85;100860.63;5065941;28;20090;-67
2022/10/31 07:47:57;;;;;;;1.17;0.93;;;;;;;13.02;98.56;100864.91;5065908;28;20032;-66
2022/10/31 07:50:25;;;;;;;2.08;1.85;;;;;;;13.03;98.81;100861.44;5065660;28;20070;-66
2022/10/31 07:53:04;;;;;;;8.68;2.75;;;;;;;13.01;98.75;100866.66;5065601;28;20115;-65
2022/10/31 07:55:30;;;;;;;0.40;0.40;;;;;;;13.02;98.53;100865.78;5065591;28;20056;-67
2022/10/31 07:57:57;;;;;;;0.82;0.82;;;;;;;13.04;98.31;100864.88;5065562;28;20038;-66
2022/10/31 08:00:22;;;;;;;0.80;0.80;;;;;;;12.99;98.86;100865.81;5065380;28;20049;-66
2022/10/31 08:02:47;;;;;;;7.60;6.85;;;;;;;13.04;98.44;100872.69;5065800;28;20033;-66
2022/10/31 08:05:13;;;;;;;0.35;0.35;;;;;;;13.03;98.25;100874.47;5065665;28;20115;-66
2022/10/31 08:07:38;;;;;;;2.13;2.00;;;;;;;12.98;98.24;100868.44;5065855;28;20029;-64
2022/10/31 08:10:04;;;;;;;0.40;0.40;;;;;;;12.98;98.36;100868.44;5065632;28;20423;-65
2022/10/31 08:12:30;;;;;;;0.40;0.40;;;;;;;12.98;98.37;100876.25;5065632;28;20354;-65
2022/10/31 08:14:55;;;;;;;0.73;0.73;;;;;;;12.97;98.33;100879.75;5065514;28;20059;-66
2022/10/31 08:17:20;;;;;;;0.40;0.40;;;;;;;12.93;97.98;100871.09;5065658;28;20032;-66
2022/10/31 08:19:46;;;;;;;0.40;0.40;;;;;;;12.91;98.17;100864.19;5065377;28;20039;-65
2022/10/31 08:22:11;;;;;;;1.23;1.17;;;;;;;12.93;98.04;100873.69;5065272;28;20021;-67
2022/10/31 08:24:36;;;;;;;1.50;1.38;;;;;;;12.93;98.20;100881.50;5064508;28;20024;-65
2022/10/31 08:27:01;;;;;;;1.40;1.23;;;;;;;13.00;98.22;100880.56;5065426;28;20028;-65
2022/10/31 08:29:27;;;;;;;0.90;0.90;;;;;;;13.04;98.11;100873.56;5065381;28;20036;-65
2022/10/31 08:31:52;;;;;;;0.38;0.38;;;;;;;13.16;98.51;100879.53;5065420;28;20024;-65
2022/10/31 08:34:17;;;;;;;1.30;1.25;;;;;;;13.21;97.87;100882.97;5065330;28;20021;-66
2022/10/31 08:36:44;;;;;;;1.38;1.35;;;;;;;13.26;98.25;100884.63;5065342;28;20040;-67
2022/10/31 08:39:10;;;;;;;0.52;0.52;;;;;;;13.32;98.38;100880.22;5065273;28;20017;-67
2022/10/31 08:41:35;;;;;;;0.93;0.93;;;;;;;13.42;98.07;100880.97;5065355;28;20598;-67
2022/10/31 08:44:00;;;;;;;0.30;0.30;;;;;;;13.45;97.96;100880.94;5065153;28;20025;-65
2022/10/31 08:46:26;;;;;;;0.30;0.30;;;;;;;13.48;97.69;100888.72;5065149;28;20021;-66
2022/10/31 08:48:51;;;;;;;0.30;0.30;;;;;;;13.56;97.31;100881.66;5065089;28;20029;-66
2022/10/31 08:51:16;;;;;;;0.75;0.75;;;;;;;13.58;97.90;100882.50;5065112;28;20021;-66
2022/10/31 08:53:42;;;;;;;1.88;1.77;;;;;;;13.62;97.29;100881.59;5064939;28;20063;-66
2022/10/31 08:56:07;;;;;;;0.47;0.47;;;;;;;13.68;97.44;100888.47;5065031;28;20036;-66
2022/10/31 08:58:32;;;;;;;0.40;0.40;;;;;;;13.73;97.06;100880.59;5065175;28;20036;-66
2022/10/31 09:01:00;;;;;;;0.50;0.50;;;;;;;13.87;97.08;100890.81;5064788;28;20040;-66
2022/10/31 09:03:27;;;;;;;0.52;0.52;;;;;;;13.93;96.90;100889.88;5065108;28;20056;-66
2022/10/31 09:06:02;;;;;;;1.88;1.77;;;;;;;13.92;96.13;100893.34;5064974;28;20408;-66
2022/10/31 09:08:30;;;;;;;0.40;0.40;;;;;;;13.94;96.10;100891.59;5064943;28;20063;-66
2022/10/31 09:10:58;;;;;;;1.80;1.70;;;;;;;14.04;96.22;100894.94;5065038;28;20669;-65
2022/10/31 09:13:24;;;;;;;1.55;1.52;;;;;;;14.03;95.41;100896.69;5064892;28;20039;-65
2022/10/31 09:15:50;;;;;;;0.43;0.43;;;;;;;14.01;95.12;100898.44;5064976;28;20021;-65
2022/10/31 09:18:18;;;;;;;0.40;0.40;;;;;;;14.03;95.71;100896.69;5064672;28;20025;-64
2022/10/31 09:20:45;;;;;;;0.52;0.52;;;;;;;13.95;94.05;100895.91;5064786;28;20362;-65
2022/10/31 09:23:15;;;;;;;1.13;1.13;;;;;;;13.91;93.87;100904.69;5064579;28;20045;-64
2022/10/31 09:25:41;;;;;;;1.33;1.27;;;;;;;13.86;93.69;100903.03;5064699;28;20556;-65
2022/10/31 09:28:09;;;;;;;0.30;0.30;;;;;;;13.85;94.06;100905.66;5064792;28;20036;-65
2022/10/31 09:30:35;;;;;;;0.32;0.32;;;;;;;13.91;93.44;100904.69;5064789;28;20029;-65
2022/10/31 09:33:12;;;;;;;0.30;0.30;;;;;;;13.96;93.30;100906.34;5064723;28;20499;-65
2022/10/31 09:35:37;;;;;;;0.63;0.63;;;;;;;14.08;93.37;100901.81;5064716;28;20029;-66
2022/10/31 09:38:05;;;;;;;1.60;1.50;;;;;;;14.18;92.42;100907.78;5067445;28;20021;-65
2022/10/31 09:40:39;;;;;;;0.32;0.32;;;;;;;14.52;92.98;100912.44;5067946;28;20425;-65
2022/10/31 09:43:24;;;;;;;0.30;0.30;;;;;;;14.74;92.43;100914.72;5068146;28;20025;-65
2022/10/31 09:45:53;;;;;;;1.23;1.23;;;;;;;15.05;91.01;100916.78;5068110;28;20025;-65
2022/10/31 09:48:27;;;;;;;0.40;0.40;;;;;;;15.31;90.00;100915.41;5068016;28;20469;-65
2022/10/31 09:51:03;;;;;;;0.20;0.20;;;;;;;15.82;89.88;100918.72;5068157;28;20028;-65
2022/10/31 09:53:43;;;;;;;0.45;0.45;;;;;;;16.25;86.43;100910.78;5067994;28;20032;-67
2022/10/31 09:56:14;;;;;;;0.25;0.25;;;;;;;15.93;84.83;100908.00;5067840;28;20029;-66
2022/10/31 09:58:43;;;;;;;3.42;3.22;;;;;;;15.56;84.16;100921.91;5068311;28;20044;-65
2022/10/31 10:01:27;;;;;;;0.30;0.30;;;;;;;15.31;83.26;100922.38;5067766;28;20045;-65
2022/10/31 10:03:58;;;;;;;3.00;2.75;;;;;;;15.17;84.27;100920.06;5067819;28;20086;-66
2022/10/31 10:06:28;;;;;;;0.47;0.47;;;;;;;14.98;84.59;100920.41;5067961;28;20078;-65
2022/10/31 10:08:54;;;;;;;0.93;0.93;;;;;;;15.05;85.13;100916.78;5068081;28;20032;-66
2022/10/31 10:11:30;;;;;;;1.23;1.17;;;;;;;15.06;85.49;100918.53;5067637;28;20083;-66
2022/10/31 10:14:05;;;;;;;0.30;0.30;;;;;;;15.04;86.30;100920.28;5067610;28;20043;-65
2022/10/31 10:16:53;;;;;;;0.30;0.30;;;;;;;15.07;85.65;100920.22;5066483;28;20151;-66
2022/10/31 10:19:44;;;;;;;0.43;0.43;;;;;;;15.40;86.76;100923.97;5066071;28;20398;-65
2022/10/31 10:22:20;;;;;;;0.30;0.30;;;;;;;15.52;85.16;100912.38;5067513;28;20378;-65
2022/10/31 10:25:07;;;;;;;0.50;0.50;;;;;;;15.48;83.46;100917.69;5067079;28;20025;-64
2022/10/31 10:28:09;;;;;;;0.77;0.77;;;;;;;15.45;83.36;100911.63;5067462;28;20033;-65
2022/10/31 10:30:54;;;;;;;0.52;0.52;;;;;;;15.89;83.52;100908.09;5066062;28;20500;-65
2022/10/31 10:33:55;;;;;;;0.30;0.30;;;;;;;16.51;81.14;100895.31;5067106;28;20029;-65
2022/10/31 10:36:44;;;;;;;0.30;0.30;;;;;;;17.99;79.24;100895.56;5066104;28;20033;-67
2022/10/31 10:39:43;;;;;;;0.20;0.20;;;;;;;19.05;73.02;100902.56;5065888;28;20029;-65
2022/10/31 10:47:51;;;;;;;2.15;2.05;;;;;;;20.02;67.45;100897.19;5066806;28;20122;-65
2022/10/31 10:50:20;;;;;;;1.95;1.10;;;;;;;20.17;66.82;100895.72;5066889;28;20104;-64
2022/10/31 10:53:00;;;;;;;0.52;0.52;;;;;;;20.85;65.47;100895.53;5066799;28;20087;-64
2022/10/31 10:55:45;;;;;;;0.40;0.40;;;;;;;20.73;63.24;100899.56;5066606;28;20029;-65
2022/10/31 10:58:11;;;;;;;0.20;0.20;;;;;;;20.40;64.09;100893.06;5066696;28;20043;-64
2022/10/31 11:00:46;;;;;;;0.30;0.30;;;;;;;20.04;63.68;100902.41;5066195;28;20480;-65
2022/10/31 11:03:13;;;;;;;0.50;0.50;;;;;;;19.94;63.69;100896.59;5066819;28;20045;-65
2022/10/31 11:05:58;;;;;;;0.20;0.20;;;;;;;20.38;64.48;100905.44;5066477;28;20047;-64
2022/10/31 11:08:41;;;;;;;0.73;0.68;;;;;;;20.29;61.10;100899.63;5066739;28;20025;-65
2022/10/31 11:11:27;;;;;;;0.25;0.25;;;;;;;20.65;61.70;100897.28;5066305;28;20048;-65
2022/10/31 11:13:59;;;;;;;0.20;0.20;;;;;;;20.61;59.96;100903.59;5066346;28;20476;-65
2022/10/31 11:16:36;;;;;;;0.20;0.20;;;;;;;19.86;59.66;100918.00;5066504;28;20032;-65
2022/10/31 11:19:20;;;;;;;0.20;0.20;;;;;;;19.05;62.41;100919.22;5066344;28;20025;-65
2022/10/31 11:21:46;;;;;;;0.77;0.77;;;;;;;19.53;63.23;100908.72;5066309;28;20079;-64
2022/10/31 11:24:20;;;;;;;0.20;0.20;;;;;;;20.28;62.54;100899.69;5066020;28;20033;-66
2022/10/31 11:26:48;;;;;;;0.20;0.20;;;;;;;20.68;59.94;100905.91;5065550;28;20031;-65
2022/10/31 11:29:20;;;;;;;0.40;0.40;;;;;;;20.02;60.30;100910.38;5064765;28;20111;-65
2022/10/31 11:31:47;;;;;;;0.20;0.20;;;;;;;19.16;62.40;100912.72;5065196;28;20048;-65
2022/10/31 11:34:34;;;;;;;0.20;0.20;;;;;;;18.40;63.80;100909.13;5066188;28;20059;-65
2022/10/31 11:37:13;;;;;;;0.55;0.55;;;;;;;17.73;65.11;100907.75;5066246;28;20027;-65
2022/10/31 11:39:43;;;;;;;0.30;0.30;;;;;;;17.25;65.75;100912.63;5065749;28;20025;-65
2022/10/31 11:42:08;;;;;;;1.20;0.73;;;;;;;16.71;67.63;100905.28;5065932;28;20025;-65